createdAt,value
2023-12-05T00:00:53.490Z,11.23
2023-12-05T00:03:22.823Z,10.50
2023-12-05T00:05:52.258Z,10.45
2023-12-05T00:08:21.364Z,10.98
2023-12-05T00:10:50.682Z,11.50
2023-12-05T00:13:19.830Z,10.65
2023-12-05T00:15:49.071Z,9.75
2023-12-05T00:18:19.893Z,11.27
2023-12-05T00:20:49.104Z,10.43
2023-12-05T00:23:18.471Z,9.63
2023-12-05T00:25:47.640Z,9.73
2023-12-05T00:28:16.813Z,10.45
2023-12-05T00:30:45.983Z,9.27
2023-12-05T00:33:17.787Z,10.20
2023-12-05T00:35:48.745Z,9.38
2023-12-05T00:38:17.938Z,10.48
2023-12-05T00:40:47.160Z,10.30
2023-12-05T00:43:16.345Z,9.63
2023-12-05T00:45:45.487Z,10.63
2023-12-05T00:48:14.728Z,9.48
2023-12-05T00:50:46.336Z,10.93
2023-12-05T00:53:17.215Z,10.35
2023-12-05T00:55:46.346Z,10.63
2023-12-05T00:58:15.783Z,9.77
2023-12-05T01:00:44.986Z,10.57
2023-12-05T01:03:15.232Z,11.63
2023-12-05T01:05:45.981Z,10.02
2023-12-05T01:08:16.632Z,10.57
2023-12-05T01:10:45.772Z,10.23
2023-12-05T01:13:14.958Z,10.43
2023-12-05T01:15:44.176Z,10.88
2023-12-05T01:18:14.138Z,11.15
2023-12-05T01:20:43.408Z,10.70
2023-12-05T01:23:12.745Z,12.15
2023-12-05T01:25:43.531Z,10.32
2023-12-05T01:28:12.820Z,11.68
2023-12-05T01:30:42.956Z,9.38
2023-12-05T01:33:12.229Z,10.38
2023-12-05T01:35:41.407Z,10.70
2023-12-05T01:38:10.627Z,10.55
2023-12-05T01:40:39.762Z,10.45
2023-12-05T01:43:10.254Z,10.57
2023-12-05T01:45:39.767Z,10.30
2023-12-05T01:48:10.058Z,10.27
2023-12-05T01:50:39.829Z,9.57
2023-12-05T01:53:09.680Z,9.60
2023-12-05T01:55:39.966Z,10.65
2023-12-05T01:58:11.123Z,11.02
2023-12-05T02:00:41.483Z,8.80
2023-12-05T02:03:11.328Z,9.75
2023-12-05T02:05:40.750Z,10.68
2023-12-05T02:08:13.470Z,9.80
2023-12-05T02:10:42.618Z,10.52
2023-12-05T02:13:13.243Z,9.57
2023-12-05T02:15:42.604Z,10.75
2023-12-05T02:18:20.210Z,10.70
2023-12-05T02:20:54.622Z,9.20
2023-12-05T02:23:56.823Z,11.38
2023-12-05T02:26:43.887Z,9.23
2023-12-05T02:29:14.420Z,10.88
2023-12-05T02:31:43.587Z,9.90
2023-12-05T02:34:13.015Z,9.05
2023-12-05T02:36:53.615Z,10.60
2023-12-05T02:39:31.697Z,10.20
2023-12-05T02:42:04.374Z,10.38
2023-12-05T02:44:42.588Z,10.23
2023-12-05T02:47:15.617Z,10.13
2023-12-05T02:49:44.822Z,11.35
2023-12-05T02:52:14.039Z,10.25
2023-12-05T02:54:43.184Z,11.02
2023-12-05T02:57:13.064Z,10.98
2023-12-05T02:59:43.746Z,10.07
2023-12-05T03:02:13.012Z,9.52
2023-12-05T03:04:44.849Z,9.88
2023-12-05T03:07:14.033Z,9.77
2023-12-05T03:09:43.326Z,11.57
2023-12-05T03:12:12.489Z,11.05
2023-12-05T03:14:43.087Z,10.48
2023-12-05T03:17:12.373Z,9.63
2023-12-05T03:19:41.823Z,9.70
2023-12-05T03:22:11.632Z,10.57
2023-12-05T03:24:40.838Z,10.02
2023-12-05T03:27:10.089Z,10.98
2023-12-05T03:29:39.300Z,11.63
2023-12-05T03:32:10.192Z,11.43
2023-12-05T03:34:39.574Z,12.00
2023-12-05T03:37:08.986Z,11.13
2023-12-05T03:39:38.210Z,11.32
2023-12-05T03:42:07.774Z,9.80
2023-12-05T03:44:36.939Z,10.05
2023-12-05T03:47:06.297Z,10.57
2023-12-05T03:49:37.177Z,11.48
2023-12-05T03:52:07.618Z,11.32
2023-12-05T03:54:36.884Z,11.55
2023-12-05T03:57:06.626Z,11.02
2023-12-05T03:59:35.797Z,11.20
2023-12-05T04:02:05.442Z,11.75
2023-12-05T04:04:36.912Z,11.02
2023-12-05T04:07:07.138Z,11.48
2023-12-05T04:09:36.328Z,10.48
2023-12-05T04:12:06.472Z,10.52
2023-12-05T04:14:35.706Z,12.95
2023-12-05T04:17:05.162Z,10.13
2023-12-05T04:19:34.397Z,10.38
2023-12-05T04:22:05.425Z,10.48
2023-12-05T04:24:35.271Z,11.25
2023-12-05T04:27:04.888Z,10.95
2023-12-05T04:29:33.999Z,10.20
2023-12-05T04:32:03.654Z,12.20
2023-12-05T04:34:33.014Z,11.80
2023-12-05T04:37:02.209Z,11.48
2023-12-05T04:39:32.733Z,11.02
2023-12-05T04:42:02.018Z,10.77
2023-12-05T04:44:31.234Z,11.82
2023-12-05T04:47:01.117Z,11.27
2023-12-05T04:49:30.414Z,11.70
2023-12-05T04:52:00.306Z,11.45
2023-12-05T04:54:29.979Z,11.55
2023-12-05T04:57:00.643Z,12.10
2023-12-05T04:59:29.777Z,11.93
2023-12-05T05:01:59.169Z,11.52
2023-12-05T05:04:28.479Z,9.82
2023-12-05T05:06:57.736Z,11.45
2023-12-05T05:09:27.015Z,10.77
2023-12-05T05:11:56.275Z,10.43
2023-12-05T05:14:26.781Z,11.10
2023-12-05T05:16:55.973Z,12.43
2023-12-05T05:19:25.782Z,10.77
2023-12-05T05:21:55.140Z,12.27
2023-12-05T05:24:24.343Z,10.75
2023-12-05T05:26:53.524Z,10.40
2023-12-05T05:29:22.690Z,10.75
2023-12-05T05:31:53.162Z,10.60
2023-12-05T05:34:22.539Z,11.38
2023-12-05T05:36:52.382Z,11.57
2023-12-05T05:39:22.275Z,10.70
2023-12-05T05:41:51.771Z,11.35
2023-12-05T05:44:20.979Z,10.57
2023-12-05T05:46:50.120Z,11.73
2023-12-05T05:49:20.703Z,10.75
2023-12-05T05:51:49.939Z,11.75
2023-12-05T05:54:19.227Z,11.48
2023-12-05T05:56:48.760Z,11.73
2023-12-05T05:59:17.899Z,14.95
2023-12-05T06:01:49.433Z,14.90
2023-12-05T06:04:18.602Z,14.48
2023-12-05T06:06:49.158Z,16.48
2023-12-05T06:09:18.328Z,17.85
2023-12-05T06:11:47.707Z,18.13
2023-12-05T06:14:16.808Z,18.42
2023-12-05T06:16:45.922Z,16.67
2023-12-05T06:19:15.959Z,15.13
2023-12-05T06:21:45.316Z,16.45
2023-12-05T06:24:16.140Z,15.93
2023-12-05T06:26:45.281Z,16.63
2023-12-05T06:29:14.491Z,14.70
2023-12-05T06:31:43.621Z,12.60
2023-12-05T06:34:12.953Z,10.63
2023-12-05T06:36:42.177Z,11.45
2023-12-05T06:39:11.866Z,12.18
2023-12-05T06:41:42.362Z,12.30
2023-12-05T06:44:11.546Z,11.95
2023-12-05T06:46:40.740Z,11.68
2023-12-05T06:49:10.100Z,11.68
2023-12-05T06:51:39.393Z,11.43
2023-12-05T06:54:08.543Z,11.18
2023-12-05T06:56:37.653Z,11.05
2023-12-05T06:59:08.167Z,12.15
2023-12-05T07:01:37.322Z,12.32
2023-12-05T07:04:06.687Z,13.48
2023-12-05T07:06:36.104Z,12.95
2023-12-05T07:09:06.807Z,13.00
2023-12-05T07:11:36.257Z,14.38
2023-12-05T07:14:05.391Z,13.13
2023-12-05T07:16:37.763Z,13.55
2023-12-05T07:19:08.176Z,13.70
2023-12-05T07:21:40.165Z,14.00
2023-12-05T07:24:09.609Z,13.93
2023-12-05T07:26:38.873Z,13.88
2023-12-05T07:29:08.057Z,14.80
2023-12-05T07:31:38.740Z,12.85
2023-12-05T07:34:08.021Z,13.85
2023-12-05T07:36:42.358Z,14.50
2023-12-05T07:39:14.065Z,12.95
2023-12-05T07:41:43.371Z,13.20
2023-12-05T07:44:13.228Z,12.43
2023-12-05T07:46:44.913Z,13.02
2023-12-05T07:49:14.312Z,13.25
2023-12-05T07:51:43.524Z,13.07
2023-12-05T07:54:12.652Z,13.80
2023-12-05T07:56:41.809Z,12.88
2023-12-05T07:59:11.465Z,13.30
2023-12-05T08:01:43.551Z,13.38
2023-12-05T08:04:14.576Z,13.05
2023-12-05T08:06:43.786Z,13.52
2023-12-05T08:09:13.241Z,13.45
2023-12-05T08:11:42.545Z,13.95
2023-12-05T08:14:11.629Z,13.30
2023-12-05T08:16:43.156Z,11.75
2023-12-05T08:19:14.239Z,13.18
2023-12-05T08:21:43.756Z,13.10
2023-12-05T08:24:14.056Z,12.90
2023-12-05T08:26:43.402Z,13.20
2023-12-05T08:29:14.072Z,12.93
2023-12-05T08:31:43.426Z,11.82
2023-12-05T08:34:16.833Z,13.70
2023-12-05T08:36:46.603Z,11.68
2023-12-05T08:39:15.765Z,12.80
2023-12-05T08:41:45.307Z,13.02
2023-12-05T08:44:14.675Z,13.13
2023-12-05T08:46:44.464Z,12.30
2023-12-05T08:49:15.367Z,12.18
2023-12-05T08:51:45.185Z,13.77
2023-12-05T08:54:14.468Z,14.85
2023-12-05T08:56:43.730Z,14.52
2023-12-05T08:59:12.910Z,12.20
2023-12-05T09:01:42.532Z,13.27
2023-12-05T09:04:11.842Z,12.80
2023-12-05T09:06:43.530Z,12.57
2023-12-05T09:09:12.779Z,13.20
2023-12-05T09:11:42.013Z,13.25
2023-12-05T09:14:11.183Z,11.98
2023-12-05T09:16:40.592Z,12.95
2023-12-05T09:19:09.855Z,13.07
2023-12-05T09:21:39.302Z,13.57
2023-12-05T09:24:11.569Z,13.65
2023-12-05T09:26:40.864Z,13.65
2023-12-05T09:29:09.954Z,14.00
2023-12-05T09:31:39.715Z,13.20
2023-12-05T09:34:08.920Z,14.63
2023-12-05T09:36:38.354Z,12.90
2023-12-05T09:39:07.609Z,13.60
2023-12-05T09:41:49.237Z,13.07
2023-12-05T09:44:22.664Z,14.82
2023-12-05T09:46:58.113Z,14.20
2023-12-05T09:49:29.960Z,13.52
2023-12-05T09:52:02.252Z,13.98
2023-12-05T09:54:34.540Z,14.73
2023-12-05T09:57:06.610Z,15.25
2023-12-05T09:59:36.236Z,14.82
2023-12-05T10:02:07.623Z,12.88
2023-12-05T10:04:45.046Z,13.95
2023-12-05T10:07:15.591Z,14.40
2023-12-05T10:09:46.309Z,15.52
2023-12-05T10:12:18.041Z,13.48
2023-12-05T10:14:47.569Z,12.50
2023-12-05T10:17:16.774Z,16.25
2023-12-05T10:19:46.506Z,13.45
2023-12-05T10:22:16.498Z,12.55
2023-12-05T10:24:46.893Z,13.75
2023-12-05T10:27:18.362Z,13.30
2023-12-05T10:29:47.784Z,13.63
2023-12-05T10:32:16.999Z,13.25
2023-12-05T10:34:50.292Z,13.93
2023-12-05T10:37:23.808Z,14.75
2023-12-05T10:39:54.302Z,13.82
2023-12-05T10:42:29.089Z,12.82
2023-12-05T10:44:59.145Z,15.35
2023-12-05T10:47:29.628Z,13.82
2023-12-05T10:49:59.912Z,13.35
2023-12-05T10:52:32.780Z,14.00
2023-12-05T10:55:02.071Z,11.93
2023-12-05T10:57:35.988Z,12.10
2023-12-05T11:00:08.769Z,14.50
2023-12-05T11:02:40.194Z,14.32
2023-12-05T11:05:12.169Z,13.00
2023-12-05T11:07:42.613Z,14.73
2023-12-05T11:10:12.595Z,14.00
2023-12-05T11:12:43.652Z,13.95
2023-12-05T11:15:16.733Z,13.52
2023-12-05T11:17:52.517Z,14.50
2023-12-05T11:20:40.010Z,13.68
2023-12-05T11:23:47.365Z,12.98
2023-12-05T11:26:45.344Z,13.05
2023-12-05T11:29:54.686Z,14.27
2023-12-05T11:32:42.016Z,12.55
2023-12-05T11:35:18.176Z,14.30
2023-12-05T11:38:08.520Z,14.85
2023-12-05T11:40:37.842Z,13.90
2023-12-05T11:43:09.087Z,14.05
2023-12-05T11:45:42.006Z,14.73
2023-12-05T11:48:14.944Z,13.57
2023-12-05T11:50:46.297Z,13.65
2023-12-05T11:53:20.736Z,13.60
2023-12-05T11:55:51.023Z,13.45
2023-12-05T11:58:38.115Z,14.00
2023-12-05T12:01:20.414Z,10.73
2023-12-05T12:03:53.814Z,13.85
2023-12-05T12:06:24.882Z,14.40
2023-12-05T12:08:57.747Z,12.88
2023-12-05T12:11:27.061Z,13.85
2023-12-05T12:13:56.269Z,14.55
2023-12-05T12:16:28.669Z,13.55
2023-12-05T12:19:04.351Z,14.15
2023-12-05T12:21:34.232Z,13.00
2023-12-05T12:24:03.962Z,13.82
2023-12-05T12:26:34.724Z,13.30
2023-12-05T12:29:08.639Z,13.75
2023-12-05T12:31:39.236Z,13.25
2023-12-05T12:34:09.407Z,13.55
2023-12-05T12:36:39.561Z,15.30
2023-12-05T12:39:09.381Z,15.60
2023-12-05T12:41:40.315Z,13.40
2023-12-05T12:44:10.919Z,13.32
2023-12-05T12:46:43.223Z,14.35
2023-12-05T12:49:12.931Z,14.27
2023-12-05T12:51:43.151Z,14.43
2023-12-05T12:54:12.506Z,13.43
2023-12-05T12:56:42.976Z,12.30
2023-12-05T12:59:13.557Z,12.80
2023-12-05T13:01:46.049Z,12.73
2023-12-05T13:04:16.794Z,13.80
2023-12-05T13:06:48.195Z,13.13
2023-12-05T13:09:19.093Z,12.07
2023-12-05T13:11:49.789Z,13.13
2023-12-05T13:14:20.825Z,12.80
2023-12-05T13:16:51.468Z,13.00
2023-12-05T13:19:25.547Z,12.65
2023-12-05T13:21:55.020Z,12.35
2023-12-05T13:24:24.276Z,13.45
2023-12-05T13:26:54.032Z,12.50
2023-12-05T13:29:23.337Z,13.45
2023-12-05T13:31:53.895Z,12.68
2023-12-05T13:34:24.279Z,12.98
2023-12-05T13:36:53.782Z,13.55
2023-12-05T13:39:23.016Z,13.30
2023-12-05T13:41:52.504Z,14.60
2023-12-05T13:44:21.642Z,13.02
2023-12-05T13:46:50.773Z,11.88
2023-12-05T13:49:21.431Z,13.43
2023-12-05T13:51:50.598Z,13.70
2023-12-05T13:54:19.980Z,13.80
2023-12-05T13:56:49.135Z,13.07
2023-12-05T13:59:18.612Z,15.15
2023-12-05T14:01:48.369Z,14.38
2023-12-05T14:04:20.275Z,13.48
2023-12-05T14:06:49.584Z,13.63
2023-12-05T14:09:19.054Z,12.90
2023-12-05T14:11:50.504Z,13.60
2023-12-05T14:14:19.717Z,13.73
2023-12-05T14:16:48.897Z,14.07
2023-12-05T14:19:18.750Z,13.10
2023-12-05T14:21:49.976Z,14.18
2023-12-05T14:24:19.149Z,13.55
2023-12-05T14:26:48.336Z,14.07
2023-12-05T14:29:17.535Z,13.15
2023-12-05T14:31:46.688Z,13.73
2023-12-05T14:34:15.887Z,13.25
2023-12-05T14:36:45.184Z,14.05
2023-12-05T14:39:18.398Z,13.15
2023-12-05T14:41:49.782Z,14.23
2023-12-05T14:44:19.108Z,13.40
2023-12-05T14:46:48.300Z,13.82
2023-12-05T14:49:17.918Z,13.95
2023-12-05T14:51:47.100Z,14.20
2023-12-05T14:54:17.625Z,14.95
2023-12-05T14:56:46.742Z,12.70
2023-12-05T14:59:17.192Z,14.63
2023-12-05T15:01:46.430Z,14.88
2023-12-05T15:04:15.671Z,15.88
2023-12-05T15:06:44.906Z,16.08
2023-12-05T15:09:14.052Z,16.42
2023-12-05T15:11:44.609Z,15.52
2023-12-05T15:14:13.825Z,16.65
2023-12-05T15:16:44.384Z,20.33
2023-12-05T15:19:15.363Z,19.00
2023-12-05T15:21:45.235Z,17.83
2023-12-05T15:24:14.599Z,16.77
2023-12-05T15:26:47.766Z,18.48
2023-12-05T15:29:22.285Z,15.38
2023-12-05T15:31:54.759Z,15.90
2023-12-05T15:34:24.054Z,15.27
2023-12-05T15:36:53.221Z,15.93
2023-12-05T15:39:22.418Z,15.18
2023-12-05T15:41:53.020Z,15.05
2023-12-05T15:44:22.249Z,16.02
2023-12-05T15:46:51.368Z,14.52
2023-12-05T15:49:20.724Z,14.35
2023-12-05T15:51:49.936Z,15.57
2023-12-05T15:54:19.325Z,18.85
2023-12-05T15:56:48.477Z,18.60
2023-12-05T15:59:21.039Z,16.20
2023-12-05T16:01:50.665Z,20.38
2023-12-05T16:04:20.257Z,16.08
2023-12-05T16:06:49.651Z,17.10
2023-12-05T16:09:21.862Z,15.73
2023-12-05T16:11:52.863Z,14.77
2023-12-05T16:14:25.688Z,17.45
2023-12-05T16:16:55.553Z,17.17
2023-12-05T16:19:25.464Z,16.30
2023-12-05T16:21:55.595Z,17.70
2023-12-05T16:24:25.201Z,16.58
2023-12-05T16:26:54.933Z,16.92
2023-12-05T16:29:26.833Z,16.92
2023-12-05T16:31:56.344Z,17.15
2023-12-05T16:34:25.704Z,16.38
2023-12-05T16:36:56.124Z,15.82
2023-12-05T16:39:25.474Z,16.00
2023-12-05T16:41:55.253Z,15.60
2023-12-05T16:44:26.663Z,15.73
2023-12-05T16:46:55.831Z,16.88
2023-12-05T16:49:25.104Z,15.18
2023-12-05T16:51:54.473Z,16.83
2023-12-05T16:54:23.977Z,17.08
2023-12-05T16:56:53.734Z,16.63
2023-12-05T16:59:28.281Z,15.77
2023-12-05T17:02:02.907Z,14.80
2023-12-05T17:04:33.518Z,15.52
2023-12-05T17:07:02.981Z,15.13
2023-12-05T17:09:32.844Z,14.90
2023-12-05T17:12:03.045Z,16.98
2023-12-05T17:14:33.245Z,15.55
2023-12-05T17:17:05.576Z,14.45
2023-12-05T17:19:35.617Z,16.02
2023-12-05T17:22:05.344Z,15.75
2023-12-05T17:24:34.632Z,15.82
2023-12-05T17:27:04.705Z,17.27
2023-12-05T17:29:34.561Z,15.73
2023-12-05T17:32:06.778Z,16.13
2023-12-05T17:34:36.524Z,16.50
2023-12-05T17:37:06.156Z,15.88
2023-12-05T17:39:35.506Z,17.52
2023-12-05T17:42:05.177Z,17.08
2023-12-05T17:44:34.337Z,16.67
2023-12-05T17:47:05.292Z,16.60
2023-12-05T17:49:34.450Z,16.52
2023-12-05T17:52:03.830Z,17.67
2023-12-05T17:54:33.213Z,16.70
2023-12-05T17:57:02.398Z,17.17
2023-12-05T17:59:32.012Z,16.75
2023-12-05T18:02:01.274Z,17.33
2023-12-05T18:04:32.121Z,16.90
2023-12-05T18:07:50.235Z,17.50
2023-12-05T18:09:52.230Z,19.88
2023-12-05T18:12:22.793Z,20.60
2023-12-05T18:14:52.045Z,18.73
2023-12-05T18:17:21.971Z,18.55
2023-12-05T18:19:53.479Z,17.33
2023-12-05T18:22:22.826Z,18.70
2023-12-05T18:24:52.056Z,17.83
2023-12-05T18:27:21.539Z,17.25
2023-12-05T18:29:52.068Z,18.05
2023-12-05T18:32:22.138Z,18.83
2023-12-05T18:34:54.068Z,18.85
2023-12-05T18:37:23.693Z,18.15
2023-12-05T18:39:53.373Z,18.02
2023-12-05T18:42:22.829Z,18.30
2023-12-05T18:44:51.979Z,19.75
2023-12-05T18:47:21.566Z,20.55
2023-12-05T18:49:54.279Z,19.50
2023-12-05T18:52:23.465Z,19.67
2023-12-05T18:54:53.295Z,18.70
2023-12-05T18:57:22.429Z,18.42
2023-12-05T18:59:51.788Z,18.20
2023-12-05T19:02:21.045Z,17.73
2023-12-05T19:04:52.582Z,18.52
2023-12-05T19:07:22.526Z,18.65
2023-12-05T19:09:52.647Z,18.63
2023-12-05T19:12:21.859Z,19.55
2023-12-05T19:14:51.105Z,20.25
2023-12-05T19:17:20.767Z,21.25
2023-12-05T19:19:50.194Z,19.83
2023-12-05T19:22:20.859Z,20.10
2023-12-05T19:24:50.076Z,19.77
2023-12-05T19:27:19.642Z,18.77
2023-12-05T19:29:49.645Z,19.02
2023-12-05T19:32:18.778Z,18.05
2023-12-05T19:34:48.350Z,19.55
2023-12-05T19:37:20.980Z,19.85
2023-12-05T19:39:50.422Z,19.63
2023-12-05T19:42:21.202Z,20.27
2023-12-05T19:44:50.410Z,20.10
2023-12-05T19:47:24.089Z,19.48
2023-12-05T19:49:54.159Z,19.63
2023-12-05T19:52:24.775Z,19.15
2023-12-05T19:54:54.355Z,19.20
2023-12-05T19:57:23.640Z,16.95
2023-12-05T19:59:52.752Z,18.67
2023-12-05T20:02:22.081Z,17.85
2023-12-05T20:04:51.378Z,18.45
2023-12-05T20:07:21.265Z,19.15
2023-12-05T20:09:56.927Z,18.08
2023-12-05T20:12:26.537Z,18.27
2023-12-05T20:14:59.161Z,20.33
2023-12-05T20:17:29.683Z,19.10
2023-12-05T20:19:59.616Z,19.15
2023-12-05T20:22:29.906Z,18.88
2023-12-05T20:25:00.880Z,18.92
2023-12-05T20:27:31.195Z,19.83
2023-12-05T20:30:00.631Z,19.75
2023-12-05T20:32:30.078Z,19.55
2023-12-05T20:34:59.340Z,18.00
2023-12-05T20:37:28.494Z,19.25
2023-12-05T20:39:59.839Z,17.75
2023-12-05T20:42:29.855Z,20.25
2023-12-05T20:44:59.372Z,19.52
2023-12-05T20:47:28.663Z,19.15
2023-12-05T20:49:58.268Z,21.73
2023-12-05T20:52:27.418Z,17.98
2023-12-05T20:54:56.531Z,20.13
2023-12-05T20:57:28.229Z,20.48
2023-12-05T20:59:57.527Z,20.17
2023-12-05T21:02:26.691Z,21.38
2023-12-05T21:04:55.834Z,20.35
2023-12-05T21:07:25.783Z,21.52
2023-12-05T21:09:56.000Z,20.05
2023-12-05T21:12:26.531Z,19.23
2023-12-05T21:14:55.635Z,19.02
2023-12-05T21:17:25.448Z,20.75
2023-12-05T21:19:55.500Z,20.75
2023-12-05T21:22:24.631Z,21.20
2023-12-05T21:24:54.455Z,21.55
2023-12-05T21:27:23.778Z,21.60
2023-12-05T21:29:54.687Z,19.50
2023-12-05T21:32:23.866Z,19.55
2023-12-05T21:34:53.153Z,19.77
2023-12-05T21:37:22.617Z,21.65
2023-12-05T21:39:51.992Z,20.30
2023-12-05T21:42:21.168Z,21.08
2023-12-05T21:44:50.315Z,21.75
2023-12-05T21:47:21.324Z,19.95
2023-12-05T21:49:50.645Z,20.10
2023-12-05T21:52:19.845Z,20.42
2023-12-05T21:54:49.620Z,21.45
2023-12-05T21:57:19.043Z,20.58
2023-12-05T21:59:48.414Z,20.60
2023-12-05T22:02:17.549Z,21.40
2023-12-05T22:04:48.089Z,20.50
2023-12-05T22:07:17.441Z,21.05
2023-12-05T22:09:46.595Z,21.27
2023-12-05T22:12:16.283Z,21.85
2023-12-05T22:14:45.419Z,22.35
2023-12-05T22:17:14.623Z,20.42
2023-12-05T22:19:43.794Z,21.42
2023-12-05T22:22:14.373Z,22.20
2023-12-05T22:24:44.197Z,21.52
2023-12-05T22:27:13.401Z,22.27
2023-12-05T22:29:46.685Z,22.52
2023-12-05T22:32:16.584Z,21.15
2023-12-05T22:34:45.834Z,20.92
2023-12-05T22:37:16.470Z,21.13
2023-12-05T22:39:45.656Z,21.40
2023-12-05T22:42:14.818Z,21.77
2023-12-05T22:44:44.039Z,23.15
2023-12-05T22:47:13.212Z,23.65
2023-12-05T22:49:42.356Z,21.42
2023-12-05T22:52:11.614Z,22.15
2023-12-05T22:54:42.167Z,22.20
2023-12-05T22:57:11.365Z,22.98
2023-12-05T22:59:40.570Z,22.08
2023-12-05T23:02:10.596Z,22.98
2023-12-05T23:04:39.887Z,22.63
2023-12-05T23:07:09.010Z,21.45
2023-12-05T23:09:38.409Z,22.30
2023-12-05T23:12:09.970Z,24.88
2023-12-05T23:14:39.165Z,20.70
2023-12-05T23:17:08.351Z,21.33
2023-12-05T23:19:37.568Z,21.98
2023-12-05T23:22:06.725Z,22.80
2023-12-05T23:24:35.891Z,20.90
2023-12-05T23:27:05.452Z,19.35
2023-12-05T23:29:35.999Z,22.73
2023-12-05T23:32:06.635Z,22.58
2023-12-05T23:34:35.832Z,21.40
2023-12-05T23:37:05.472Z,21.52
2023-12-05T23:39:34.669Z,21.70
2023-12-05T23:42:03.830Z,21.50
2023-12-05T23:44:32.945Z,22.65
2023-12-05T23:47:03.441Z,22.98
2023-12-05T23:49:32.774Z,21.20
2023-12-05T23:52:02.035Z,21.05
2023-12-05T23:54:31.915Z,22.50
2023-12-05T23:57:01.149Z,22.60
2023-12-05T23:59:30.302Z,23.08
